createdAt,value
2019-01-30T01:06:48.935Z,27.53
2019-01-30T02:38:09.754Z,15.60
2019-01-30T03:35:49.152Z,17.03
2019-01-30T04:05:32.291Z,18.60
2019-01-30T06:07:35.843Z,19.93
2019-01-30T06:10:11.741Z,20.77
2019-01-30T06:12:41.609Z,20.80
2019-01-30T06:15:12.837Z,21.33
2019-01-30T06:17:43.750Z,21.17
2019-01-30T06:20:27.182Z,19.93
2019-01-30T06:25:48.395Z,17.53
2019-01-30T06:28:19.301Z,17.53
2019-01-30T06:30:54.062Z,17.27
2019-01-30T06:33:24.710Z,17.57
2019-01-30T06:35:58.162Z,17.37
2019-01-30T06:38:28.604Z,16.53
2019-01-30T06:40:59.108Z,16.23
2019-01-30T06:43:28.933Z,17.07
2019-01-30T06:45:59.228Z,16.40
2019-01-30T06:48:30.717Z,16.10
2019-01-30T06:51:02.843Z,16.07
2019-01-30T06:53:37.248Z,15.73
2019-01-30T06:56:10.434Z,17.50
2019-01-30T06:58:41.578Z,20.47
2019-01-30T07:01:12.036Z,16.07
2019-01-30T07:03:42.898Z,17.60
2019-01-30T07:06:15.058Z,16.03
2019-01-30T07:08:46.054Z,19.50
2019-01-30T07:11:17.898Z,19.87
2019-01-30T07:13:50.505Z,25.47
2019-01-30T07:16:23.391Z,21.17
2019-01-30T07:18:55.942Z,20.93
2019-01-30T07:21:31.176Z,20.63
2019-01-30T07:24:01.715Z,20.63
2019-01-30T07:26:33.168Z,19.83
2019-01-30T07:29:06.027Z,21.27
2019-01-30T07:31:41.209Z,21.17
2019-01-30T07:34:12.487Z,23.00
2019-01-30T07:36:43.548Z,20.73
2019-01-30T07:39:14.349Z,24.30
2019-01-30T07:41:46.518Z,30.13
2019-01-30T07:44:20.359Z,24.97
2019-01-30T07:47:20.066Z,32.20
2019-01-30T07:49:58.653Z,28.97
2019-01-30T07:52:55.086Z,29.63
2019-01-30T07:58:55.497Z,29.50
2019-01-30T08:02:03.376Z,26.67
2019-01-30T08:04:50.326Z,31.07
2019-01-30T08:07:27.686Z,32.87
2019-01-30T08:10:00.848Z,66.47
2019-01-30T08:12:31.613Z,59.37
2019-01-30T08:15:02.393Z,29.53
2019-01-30T08:17:37.121Z,35.63
2019-01-30T08:20:09.739Z,33.80
2019-01-30T08:23:13.994Z,32.10
2019-01-30T08:25:43.768Z,29.67
2019-01-30T08:28:15.967Z,25.93
2019-01-30T08:30:46.622Z,31.70
2019-01-30T08:33:17.568Z,28.43
2019-01-30T08:35:49.421Z,27.40
2019-01-30T08:38:20.012Z,25.33
2019-01-30T08:40:52.328Z,19.90
2019-01-30T08:43:24.375Z,19.50
2019-01-30T08:45:55.338Z,25.30
2019-01-30T08:48:28.532Z,19.20
2019-01-30T08:50:58.236Z,16.60
2019-01-30T08:53:28.608Z,21.20
2019-01-30T08:55:59.023Z,22.50
2019-01-30T08:58:31.041Z,23.83
2019-01-30T09:01:01.436Z,19.67
2019-01-30T09:03:31.817Z,18.87
2019-01-30T09:06:02.290Z,15.90
2019-01-30T09:08:33.063Z,15.83
2019-01-30T09:11:03.521Z,16.53
2019-01-30T09:13:33.924Z,13.97
2019-01-30T09:16:04.843Z,20.57
2019-01-30T09:18:35.212Z,21.43
2019-01-30T09:21:05.819Z,18.17
2019-01-30T09:23:36.172Z,24.93
2019-01-30T09:26:06.549Z,17.70
2019-01-30T09:28:37.295Z,17.53
2019-01-30T09:31:07.672Z,18.57
2019-01-30T09:33:38.089Z,18.40
2019-01-30T09:36:09.716Z,9.60
2019-01-30T09:38:40.490Z,11.13
2019-01-30T09:41:10.913Z,10.80
2019-01-30T09:43:41.497Z,9.77
2019-01-30T09:46:12.207Z,9.87
2019-01-30T09:48:44.607Z,10.03
2019-01-30T09:51:15.072Z,10.20
2019-01-30T09:53:45.517Z,11.53
2019-01-30T09:56:17.376Z,8.80
2019-01-30T09:58:47.387Z,9.43
2019-01-30T10:01:18.265Z,9.37
2019-01-30T10:03:50.626Z,10.17
2019-01-30T10:06:21.000Z,9.83
2019-01-30T10:08:51.398Z,13.00
2019-01-30T10:11:21.860Z,15.47
2019-01-30T10:13:53.224Z,10.00
2019-01-30T10:16:23.644Z,10.00
2019-01-30T10:18:54.191Z,9.27
2019-01-30T10:21:24.608Z,8.43
2019-01-30T10:23:54.964Z,10.20
2019-01-30T10:26:25.435Z,9.73
2019-01-30T10:28:55.879Z,9.10
2019-01-30T10:31:26.265Z,7.77
2019-01-30T10:33:56.648Z,8.60
2019-01-30T10:36:27.043Z,8.43
2019-01-30T10:38:57.432Z,8.23
2019-01-30T10:41:28.208Z,9.20
2019-01-30T10:43:58.643Z,8.93
2019-01-30T10:46:29.068Z,8.93
2019-01-30T10:48:59.519Z,7.60
2019-01-30T10:51:29.882Z,7.00
2019-01-30T10:54:00.460Z,6.67
2019-01-30T10:56:30.899Z,7.03
2019-01-30T10:59:01.256Z,6.90
2019-01-30T11:01:31.620Z,6.87
2019-01-30T11:04:02.079Z,7.10
2019-01-30T11:06:35.027Z,7.63
2019-01-30T11:09:09.257Z,7.07
2019-01-30T11:11:39.703Z,6.60
2019-01-30T11:14:10.088Z,6.60
2019-01-30T11:16:41.512Z,6.83
2019-01-30T11:19:12.048Z,7.37
2019-01-30T11:21:42.420Z,8.13
2019-01-30T11:24:12.804Z,7.13
2019-01-30T11:26:43.365Z,7.30
2019-01-30T11:29:13.803Z,6.93
2019-01-30T11:31:44.200Z,12.60
2019-01-30T11:34:15.084Z,11.63
2019-01-30T11:36:45.455Z,10.50
2019-01-30T11:39:15.856Z,14.07
2019-01-30T11:41:46.223Z,8.80
2019-01-30T11:44:16.925Z,8.87
2019-01-30T11:46:47.326Z,8.83
2019-01-30T11:49:17.759Z,7.80
2019-01-30T11:51:48.196Z,7.13
2019-01-30T11:54:18.712Z,6.57
2019-01-30T11:56:50.235Z,6.93
2019-01-30T11:59:20.742Z,6.77
2019-01-30T12:01:51.191Z,6.70
2019-01-30T12:04:21.583Z,10.23
2019-01-30T12:06:52.043Z,9.00
2019-01-30T12:09:22.392Z,8.77
2019-01-30T12:11:53.016Z,8.70
2019-01-30T12:14:23.428Z,8.33
2019-01-30T12:16:53.883Z,9.27
2019-01-30T12:19:24.370Z,8.83
2019-01-30T12:21:54.787Z,8.43
2019-01-30T12:24:25.189Z,9.03
2019-01-30T12:26:56.088Z,8.60
2019-01-30T12:29:26.536Z,8.43
2019-01-30T12:31:57.297Z,9.77
2019-01-30T12:34:28.579Z,8.43
2019-01-30T12:36:58.609Z,8.17
2019-01-30T12:39:28.983Z,8.57
2019-01-30T12:42:00.036Z,9.00
2019-01-30T12:44:30.472Z,8.40
2019-01-30T12:47:00.811Z,7.50
2019-01-30T12:49:31.251Z,8.50
2019-01-30T12:52:01.657Z,7.83
2019-01-30T12:54:32.111Z,7.53
2019-01-30T12:57:02.515Z,7.53
2019-01-30T12:59:32.963Z,8.20
2019-01-30T13:02:03.303Z,8.97
2019-01-30T13:04:38.785Z,8.73
2019-01-30T13:07:05.796Z,8.53
2019-01-30T13:09:36.131Z,8.27
2019-01-30T13:12:06.631Z,8.57
2019-01-30T13:14:37.032Z,8.83
2019-01-30T13:17:07.384Z,8.90
2019-01-30T13:19:37.807Z,9.27
2019-01-30T13:22:08.152Z,9.20
2019-01-30T13:24:38.570Z,9.87
2019-01-30T13:27:09.063Z,11.80
2019-01-30T13:29:39.471Z,10.17
2019-01-30T13:32:09.841Z,11.07
2019-01-30T13:34:48.740Z,11.10
2019-01-30T13:37:15.000Z,11.20
2019-01-30T13:39:45.715Z,10.67
2019-01-30T13:42:16.078Z,12.40
2019-01-30T13:44:46.420Z,12.03
2019-01-30T13:47:16.867Z,12.77
2019-01-30T13:49:47.251Z,13.17
2019-01-30T13:52:17.647Z,14.40
2019-01-30T13:54:47.388Z,13.90
2019-01-30T13:57:17.703Z,14.13
2019-01-30T13:59:48.358Z,14.03
2019-01-30T14:02:18.783Z,14.27
2019-01-30T14:04:59.103Z,14.63
2019-01-30T14:07:21.213Z,14.10
2019-01-30T14:09:52.455Z,12.70
2019-01-30T14:12:22.843Z,13.13
2019-01-30T14:14:53.431Z,14.57
2019-01-30T14:17:23.828Z,14.17
2019-01-30T14:19:54.316Z,14.87
2019-01-30T14:22:24.680Z,13.80
2019-01-30T14:24:54.363Z,14.57
2019-01-30T14:27:24.655Z,14.17
2019-01-30T14:29:58.376Z,12.10
2019-01-30T14:32:27.456Z,12.67
2019-01-30T14:34:57.854Z,12.80
2019-01-30T14:37:28.407Z,12.67
2019-01-30T14:39:58.842Z,13.97
2019-01-30T14:42:29.285Z,14.60
2019-01-30T14:44:59.664Z,12.73
2019-01-30T14:47:30.063Z,12.83
2019-01-30T14:50:00.427Z,13.13
2019-01-30T14:52:30.831Z,11.83
2019-01-30T14:55:01.251Z,12.53
2019-01-30T14:57:32.827Z,13.07
2019-01-30T15:00:05.158Z,12.57
2019-01-30T15:02:36.831Z,12.60
2019-01-30T15:05:09.258Z,13.13
2019-01-30T15:07:39.666Z,13.73
2019-01-30T15:10:12.036Z,13.80
2019-01-30T15:12:42.496Z,13.50
2019-01-30T15:15:15.223Z,13.77
2019-01-30T15:17:46.689Z,12.53
2019-01-30T15:20:22.140Z,13.10
2019-01-30T15:22:53.466Z,12.17
2019-01-30T15:25:24.088Z,11.60
2019-01-30T15:27:54.560Z,11.23
2019-01-30T15:30:30.260Z,11.63
2019-01-30T15:33:01.011Z,12.37
2019-01-30T15:35:33.674Z,12.23
2019-01-30T15:38:05.743Z,13.00
2019-01-30T15:40:36.257Z,14.37
2019-01-30T15:43:06.620Z,12.83
2019-01-30T15:45:37.061Z,13.30
2019-01-30T15:48:07.742Z,13.97
2019-01-30T15:50:39.008Z,13.53
2019-01-30T15:53:19.091Z,13.40
2019-01-30T15:55:49.483Z,14.33
2019-01-30T15:58:19.848Z,14.73
2019-01-30T16:01:13.907Z,16.97
2019-01-30T16:03:44.262Z,14.63
2019-01-30T16:06:14.616Z,17.03
2019-01-30T16:08:45.147Z,14.33
2019-01-30T16:11:15.499Z,15.30
2019-01-30T16:13:45.951Z,15.87
2019-01-30T16:16:16.376Z,15.40
2019-01-30T16:18:46.748Z,16.17
2019-01-30T16:21:17.108Z,16.57
2019-01-30T16:23:47.500Z,15.83
2019-01-30T16:26:17.926Z,18.07
2019-01-30T16:28:48.352Z,18.17
2019-01-30T16:31:18.747Z,17.07
2019-01-30T16:33:49.120Z,19.40
2019-01-30T16:36:19.470Z,18.33
2019-01-30T16:38:49.902Z,17.97
2019-01-30T16:41:20.388Z,17.97
2019-01-30T16:43:50.747Z,17.43
2019-01-30T16:46:21.464Z,20.20
2019-01-30T16:48:51.827Z,19.87
2019-01-30T16:51:22.203Z,18.93
2019-01-30T16:53:52.639Z,21.23
2019-01-30T16:56:22.987Z,20.97
2019-01-30T16:58:53.364Z,19.63
2019-01-30T17:01:23.875Z,21.00
2019-01-30T17:03:53.586Z,21.17
2019-01-30T17:06:23.956Z,21.27
2019-01-30T17:08:53.688Z,20.67
2019-01-30T17:11:24.039Z,21.33
2019-01-30T17:13:53.739Z,21.93
2019-01-30T17:16:24.091Z,22.50
2019-01-30T17:18:53.784Z,21.57
2019-01-30T17:21:24.079Z,23.33
2019-01-30T17:23:53.788Z,23.47
2019-01-30T17:26:24.107Z,24.20
2019-01-30T17:28:53.825Z,24.37
2019-01-30T17:31:30.049Z,25.10
2019-01-30T17:34:00.496Z,23.97
2019-01-30T17:36:31.965Z,27.33
2019-01-30T17:39:02.339Z,25.53
2019-01-30T17:41:34.587Z,27.20
2019-01-30T17:44:05.035Z,27.70
2019-01-30T17:46:35.377Z,30.53
2019-01-30T17:49:05.763Z,31.90
2019-01-30T17:51:36.183Z,30.80
2019-01-30T17:54:06.563Z,29.43
2019-01-30T17:56:37.987Z,32.80
2019-01-30T17:59:08.535Z,32.53
2019-01-30T18:01:38.954Z,30.07
2019-01-30T18:04:09.470Z,31.00
2019-01-30T18:06:39.837Z,32.53
2019-01-30T18:09:10.923Z,31.43
2019-01-30T18:11:41.361Z,32.43
2019-01-30T18:14:12.127Z,34.30
2019-01-30T18:17:04.106Z,35.87
2019-01-30T18:19:34.720Z,36.13
2019-01-30T18:22:05.494Z,36.13
2019-01-30T18:24:36.137Z,37.50
2019-01-30T18:27:06.496Z,38.60
2019-01-30T18:29:38.452Z,35.50
2019-01-30T18:32:09.060Z,38.53
2019-01-30T18:34:40.106Z,37.20
2019-01-30T18:37:11.132Z,38.53
2019-01-30T18:39:42.599Z,38.93
2019-01-30T18:42:13.180Z,38.30
2019-01-30T18:44:43.827Z,39.00
2019-01-30T18:47:14.391Z,38.73
2019-01-30T18:49:44.764Z,39.57
2019-01-30T18:52:15.646Z,39.83
2019-01-30T18:54:46.585Z,39.63
2019-01-30T18:57:17.172Z,38.33
2019-01-30T18:59:47.668Z,41.43
2019-01-30T19:02:18.224Z,38.30
2019-01-30T19:04:48.792Z,39.17
2019-01-30T19:07:19.143Z,40.80
2019-01-30T19:10:08.645Z,51.33
2019-01-30T19:12:38.999Z,52.13
2019-01-30T19:15:13.460Z,41.80
2019-01-30T19:17:43.843Z,40.00
2019-01-30T19:20:35.003Z,39.17
2019-01-30T19:23:06.999Z,42.23
2019-01-30T19:25:37.715Z,41.90
2019-01-30T19:28:08.777Z,46.53
2019-01-30T19:30:39.586Z,43.90
2019-01-30T19:33:10.045Z,42.10
2019-01-30T19:35:41.423Z,43.40
2019-01-30T19:38:11.696Z,43.57
2019-01-30T19:40:42.072Z,42.60
2019-01-30T19:43:15.268Z,44.80
2019-01-30T19:45:45.656Z,42.83
2019-01-30T19:48:18.895Z,44.50
2019-01-30T19:50:48.675Z,45.40
2019-01-30T19:53:18.316Z,48.93
2019-01-30T19:55:47.966Z,50.73
2019-01-30T19:58:18.396Z,47.50
2019-01-30T20:00:48.839Z,50.00
2019-01-30T20:03:24.151Z,45.60
2019-01-30T20:05:54.492Z,47.00
2019-01-30T20:08:24.904Z,45.23
2019-01-30T20:10:55.431Z,44.57
2019-01-30T20:13:25.779Z,48.03
2019-01-30T20:15:56.227Z,47.23
2019-01-30T20:18:26.576Z,44.77
2019-01-30T20:20:56.476Z,46.47
2019-01-30T20:23:26.735Z,45.60
2019-01-30T20:25:56.542Z,45.63
2019-01-30T20:28:26.832Z,44.93
2019-01-30T20:30:56.800Z,45.97
2019-01-30T20:33:27.090Z,46.80
2019-01-30T20:35:56.784Z,48.00
2019-01-30T20:38:27.132Z,47.23
2019-01-30T20:40:59.019Z,50.23
2019-01-30T20:43:29.399Z,46.13
2019-01-30T20:45:59.755Z,50.30
2019-01-30T20:48:30.140Z,50.03
2019-01-30T20:51:00.486Z,48.23
2019-01-30T20:53:30.197Z,48.93
2019-01-30T20:56:00.511Z,47.13
2019-01-30T20:58:31.292Z,48.67
2019-01-30T21:01:01.552Z,47.90
2019-01-30T21:03:32.975Z,50.27
2019-01-30T21:06:03.719Z,48.40
2019-01-30T21:08:34.084Z,48.20
2019-01-30T21:11:04.539Z,49.80
2019-01-30T21:13:34.892Z,47.63
2019-01-30T21:16:05.372Z,46.57
2019-01-30T21:18:35.797Z,45.73
2019-01-30T21:21:05.523Z,45.40
2019-01-30T21:23:35.805Z,47.23
2019-01-30T21:26:06.467Z,45.57
2019-01-30T21:28:36.891Z,47.57
2019-01-30T21:31:06.669Z,48.53
2019-01-30T21:33:37.119Z,43.93
2019-01-30T21:36:06.879Z,44.57
2019-01-30T21:38:37.292Z,45.87
2019-01-30T21:41:07.199Z,46.30
2019-01-30T21:43:37.759Z,44.73
2019-01-30T21:46:08.109Z,42.67
2019-01-30T21:48:38.511Z,42.80
2019-01-30T21:51:08.911Z,40.40
2019-01-30T21:53:38.765Z,42.00
2019-01-30T21:56:09.935Z,39.30
2019-01-30T21:58:40.531Z,39.50
2019-01-30T22:01:12.075Z,40.40
2019-01-30T22:03:43.869Z,37.80
2019-01-30T22:06:14.345Z,38.57
2019-01-30T22:08:44.819Z,37.97
2019-01-30T22:11:15.167Z,36.93
2019-01-30T22:13:45.508Z,35.47
2019-01-30T22:16:15.241Z,37.80
2019-01-30T22:18:47.391Z,61.63
2019-01-30T22:21:17.847Z,32.63
2019-01-30T22:23:48.192Z,34.83
2019-01-30T22:26:19.707Z,32.50
2019-01-30T22:28:49.405Z,31.77
2019-01-30T22:31:19.687Z,33.97
2019-01-30T22:33:50.040Z,35.37
2019-01-30T22:36:20.388Z,34.67
2019-01-30T22:38:50.827Z,35.03
2019-01-30T22:41:20.531Z,36.60
2019-01-30T22:43:50.791Z,36.10
2019-01-30T22:46:21.137Z,37.57
2019-01-30T22:48:51.479Z,37.60
2019-01-30T22:51:21.824Z,34.83
2019-01-30T22:53:52.275Z,36.07
2019-01-30T22:56:22.611Z,36.97
2019-01-30T22:58:52.983Z,38.20
2019-01-30T23:02:05.901Z,35.40
2019-01-30T23:05:16.999Z,35.13
2019-01-30T23:08:23.152Z,37.77
2019-01-30T23:11:21.559Z,36.90
2019-01-30T23:14:01.579Z,33.40
2019-01-30T23:17:01.123Z,33.10
2019-01-30T23:19:36.742Z,32.20
2019-01-30T23:22:26.549Z,33.83
2019-01-30T23:25:37.499Z,35.20
2019-01-30T23:28:31.564Z,32.40
2019-01-30T23:31:27.047Z,33.73
2019-01-30T23:34:40.994Z,34.37
2019-01-30T23:37:26.007Z,32.80
2019-01-30T23:40:30.852Z,32.07
2019-01-30T23:43:30.027Z,30.60
2019-01-30T23:46:24.879Z,30.43
2019-01-30T23:49:42.167Z,31.27
2019-01-30T23:52:36.163Z,33.30
2019-01-30T23:55:25.942Z,33.93
2019-01-30T23:58:12.040Z,29.33
